createdAt,value
2022-07-26T00:00:42.563Z,0.00
2022-07-26T00:01:42.818Z,0.00
2022-07-26T00:02:48.191Z,0.00
2022-07-26T00:03:42.500Z,0.00
2022-07-26T00:04:42.304Z,0.00
2022-07-26T00:05:42.434Z,0.00
2022-07-26T00:06:42.234Z,0.00
2022-07-26T00:07:42.247Z,0.00
2022-07-26T00:08:42.160Z,0.00
2022-07-26T00:09:47.782Z,0.00
2022-07-26T00:10:42.267Z,0.00
2022-07-26T00:11:42.116Z,0.00
2022-07-26T00:12:42.075Z,0.00
2022-07-26T00:13:41.967Z,0.00
2022-07-26T00:14:42.102Z,0.00
2022-07-26T00:15:42.103Z,0.00
2022-07-26T00:16:41.945Z,0.00
2022-07-26T00:17:41.904Z,0.00
2022-07-26T00:18:41.783Z,0.00
2022-07-26T00:19:41.946Z,0.00
2022-07-26T00:20:41.708Z,0.00
2022-07-26T00:21:41.674Z,0.00
2022-07-26T00:22:41.742Z,0.00
2022-07-26T00:23:41.796Z,0.00
2022-07-26T00:24:41.753Z,0.00
2022-07-26T00:25:41.522Z,0.00
2022-07-26T00:26:41.480Z,0.00
2022-07-26T00:27:41.446Z,0.00
2022-07-26T00:28:41.574Z,0.00
2022-07-26T00:29:41.373Z,0.00
2022-07-26T00:30:41.385Z,0.00
2022-07-26T00:31:41.415Z,0.00
2022-07-26T00:32:41.254Z,0.00
2022-07-26T00:33:41.415Z,0.00
2022-07-26T00:34:41.271Z,0.00
2022-07-26T00:35:41.239Z,0.00
2022-07-26T00:36:41.829Z,0.00
2022-07-26T00:37:41.232Z,0.00
2022-07-26T00:38:41.253Z,0.00
2022-07-26T00:39:41.003Z,0.00
2022-07-26T00:40:41.058Z,0.00
2022-07-26T00:41:40.913Z,0.00
2022-07-26T00:42:41.072Z,0.00
2022-07-26T00:43:40.835Z,0.00
2022-07-26T00:44:40.885Z,0.00
2022-07-26T00:45:40.770Z,0.00
2022-07-26T00:46:41.163Z,0.00
2022-07-26T00:47:40.681Z,0.00
2022-07-26T00:48:40.746Z,0.00
2022-07-26T00:49:40.706Z,0.00
2022-07-26T00:50:40.576Z,0.00
2022-07-26T00:51:40.722Z,0.00
2022-07-26T00:52:40.516Z,0.00
2022-07-26T00:53:40.530Z,0.00
2022-07-26T00:54:40.417Z,0.00
2022-07-26T00:55:40.395Z,0.00
2022-07-26T00:56:40.556Z,0.00
2022-07-26T00:57:40.293Z,0.00
2022-07-26T00:58:40.564Z,0.00
2022-07-26T00:59:40.224Z,0.00
2022-07-26T01:00:41.395Z,0.00
2022-07-26T01:01:40.284Z,0.00
2022-07-26T01:02:40.253Z,0.00
2022-07-26T01:03:40.150Z,0.00
2022-07-26T01:04:40.198Z,0.00
2022-07-26T01:05:39.995Z,0.00
2022-07-26T01:06:39.960Z,0.00
2022-07-26T01:07:39.918Z,0.00
2022-07-26T01:08:40.022Z,0.00
2022-07-26T01:09:39.839Z,0.00
2022-07-26T01:10:40.242Z,0.00
2022-07-26T01:11:39.761Z,0.00
2022-07-26T01:12:39.749Z,0.00
2022-07-26T01:13:39.692Z,0.00
2022-07-26T01:14:39.872Z,0.00
2022-07-26T01:15:39.693Z,0.00
2022-07-26T01:16:39.927Z,0.00
2022-07-26T01:17:39.532Z,0.00
2022-07-26T01:18:39.498Z,0.00
2022-07-26T01:19:39.694Z,0.00
2022-07-26T01:20:39.434Z,0.00
2022-07-26T01:21:39.504Z,0.00
2022-07-26T01:22:39.557Z,0.00
2022-07-26T01:23:39.519Z,0.00
2022-07-26T01:24:39.265Z,0.00
2022-07-26T01:25:43.754Z,0.00
2022-07-26T01:26:39.185Z,0.00
2022-07-26T01:27:39.629Z,0.00
2022-07-26T01:28:39.141Z,0.00
2022-07-26T01:29:39.086Z,0.00
2022-07-26T01:30:39.040Z,0.00
2022-07-26T01:31:39.250Z,0.00
2022-07-26T01:32:39.472Z,0.00
2022-07-26T01:33:38.981Z,0.00
2022-07-26T01:34:39.040Z,0.00
2022-07-26T01:35:39.032Z,0.00
2022-07-26T01:36:39.572Z,0.00
2022-07-26T01:37:38.787Z,0.00
2022-07-26T01:38:38.803Z,0.00
2022-07-26T01:39:38.690Z,0.00
2022-07-26T01:40:38.823Z,0.00
2022-07-26T01:41:38.878Z,0.00
2022-07-26T01:42:38.634Z,0.00
2022-07-26T01:43:38.546Z,0.00
2022-07-26T01:44:38.642Z,0.00
2022-07-26T01:45:38.555Z,0.00
2022-07-26T01:46:38.437Z,0.00
2022-07-26T01:47:38.436Z,0.00
2022-07-26T01:48:38.616Z,0.00
2022-07-26T01:49:38.311Z,0.00
2022-07-26T01:50:38.382Z,0.00
2022-07-26T01:51:38.242Z,0.00
2022-07-26T01:52:38.194Z,0.00
2022-07-26T01:53:38.245Z,0.00
2022-07-26T01:54:38.209Z,0.00
2022-07-26T01:55:38.086Z,0.00
2022-07-26T01:56:38.225Z,0.00
2022-07-26T01:57:38.109Z,0.00
2022-07-26T01:58:37.960Z,0.00
2022-07-26T01:59:38.039Z,0.00
2022-07-26T02:00:37.894Z,0.00
2022-07-26T02:01:40.126Z,0.00
2022-07-26T02:02:37.901Z,0.00
2022-07-26T02:03:37.861Z,0.00
2022-07-26T02:04:37.740Z,0.00
2022-07-26T02:05:38.085Z,0.00
2022-07-26T02:06:37.818Z,0.00
2022-07-26T02:07:37.702Z,0.00
2022-07-26T02:08:37.581Z,0.00
2022-07-26T02:09:39.685Z,0.00
2022-07-26T02:10:37.514Z,0.00
2022-07-26T02:11:37.521Z,0.00
2022-07-26T02:12:37.589Z,0.00
2022-07-26T02:13:37.537Z,0.00
2022-07-26T02:14:37.356Z,0.00
2022-07-26T02:15:37.379Z,0.00
2022-07-26T02:16:39.397Z,0.00
2022-07-26T02:17:45.809Z,0.00
2022-07-26T02:18:46.334Z,0.00
2022-07-26T02:20:02.875Z,0.00
2022-07-26T02:20:46.799Z,0.00
2022-07-26T02:21:45.952Z,0.00
2022-07-26T02:22:45.483Z,0.00
2022-07-26T02:23:45.030Z,0.00
2022-07-26T02:24:36.995Z,0.00
2022-07-26T02:25:49.556Z,0.00
2022-07-26T02:28:21.877Z,0.00
2022-07-26T02:29:15.113Z,0.00
2022-07-26T02:30:21.418Z,0.00
2022-07-26T02:31:15.586Z,0.00
2022-07-26T02:32:21.236Z,0.00
2022-07-26T02:33:44.996Z,0.00
2022-07-26T02:34:21.526Z,0.00
2022-07-26T02:35:21.555Z,0.00
2022-07-26T02:36:22.594Z,0.00
2022-07-26T02:37:21.136Z,0.00
2022-07-26T02:38:21.182Z,0.00
2022-07-26T02:39:21.226Z,0.00
2022-07-26T02:40:21.746Z,0.00
2022-07-26T02:41:21.785Z,0.00
2022-07-26T02:42:21.322Z,0.00
2022-07-26T02:43:13.374Z,0.00
2022-07-26T02:44:13.120Z,0.00
2022-07-26T02:45:13.182Z,0.00
2022-07-26T02:46:13.085Z,0.00
2022-07-26T02:47:13.193Z,0.00
2022-07-26T02:48:12.963Z,0.00
2022-07-26T02:49:13.062Z,0.00
2022-07-26T02:50:12.892Z,0.00
2022-07-26T02:51:13.224Z,0.00
2022-07-26T02:52:12.849Z,0.00
2022-07-26T02:53:12.833Z,0.00
2022-07-26T02:54:12.729Z,0.00
2022-07-26T02:55:12.846Z,0.00
2022-07-26T02:56:12.652Z,0.00
2022-07-26T02:57:12.855Z,0.00
2022-07-26T02:58:12.710Z,0.00
2022-07-26T02:59:12.669Z,0.00
2022-07-26T03:00:12.507Z,0.00
2022-07-26T03:01:12.730Z,0.00
2022-07-26T03:02:12.424Z,0.00
2022-07-26T03:03:12.547Z,0.00
2022-07-26T03:04:12.390Z,0.00
2022-07-26T03:05:12.510Z,0.00
2022-07-26T03:06:12.263Z,0.00
2022-07-26T03:07:12.227Z,0.00
2022-07-26T03:08:12.188Z,0.00
2022-07-26T03:09:12.335Z,0.00
2022-07-26T03:10:12.187Z,0.00
2022-07-26T03:11:12.369Z,0.00
2022-07-26T03:12:12.052Z,0.00
2022-07-26T03:13:11.990Z,0.00
2022-07-26T03:14:12.108Z,0.00
2022-07-26T03:15:11.962Z,0.00
2022-07-26T03:16:11.955Z,0.00
2022-07-26T03:17:11.983Z,0.00
2022-07-26T03:18:12.032Z,0.00
2022-07-26T03:19:11.771Z,0.00
2022-07-26T03:20:11.798Z,0.00
2022-07-26T03:21:11.689Z,0.00
2022-07-26T03:22:11.810Z,0.00
2022-07-26T03:23:11.666Z,0.00
2022-07-26T03:24:12.013Z,0.00
2022-07-26T03:25:11.526Z,0.00
2022-07-26T03:26:11.633Z,0.00
2022-07-26T03:27:11.468Z,4.00
2022-07-26T03:28:14.701Z,4.00
2022-07-26T03:29:11.376Z,4.00
2022-07-26T03:30:11.661Z,4.00
2022-07-26T03:31:11.329Z,4.00
2022-07-26T03:32:11.471Z,4.00
2022-07-26T03:33:11.230Z,8.00
2022-07-26T03:34:11.485Z,8.00
2022-07-26T03:35:11.158Z,4.00
2022-07-26T03:36:11.582Z,8.00
2022-07-26T03:37:11.066Z,8.00
2022-07-26T03:38:11.108Z,12.00
2022-07-26T03:39:10.991Z,16.00
2022-07-26T03:40:11.118Z,20.00
2022-07-26T03:41:13.480Z,24.00
2022-07-26T03:42:10.881Z,28.00
2022-07-26T03:43:10.841Z,32.00
2022-07-26T03:44:11.425Z,32.00
2022-07-26T03:45:10.760Z,36.00
2022-07-26T03:46:11.002Z,36.00
2022-07-26T03:47:10.812Z,36.00
2022-07-26T03:48:10.649Z,32.00
2022-07-26T03:49:16.410Z,32.00
2022-07-26T03:50:10.565Z,36.00
2022-07-26T03:51:10.585Z,36.00
2022-07-26T03:52:10.504Z,44.00
2022-07-26T03:53:10.617Z,52.00
2022-07-26T03:54:10.630Z,60.00
2022-07-26T03:55:10.618Z,68.00
2022-07-26T03:56:10.335Z,76.00
2022-07-26T03:57:10.451Z,84.00
2022-07-26T03:58:10.249Z,96.00
2022-07-26T03:59:10.501Z,104.00
2022-07-26T04:00:10.177Z,112.00
2022-07-26T04:01:10.270Z,112.00
2022-07-26T04:02:10.130Z,124.00
2022-07-26T04:03:11.312Z,132.00
2022-07-26T04:04:10.429Z,148.00
2022-07-26T04:05:10.005Z,168.00
2022-07-26T04:06:10.094Z,188.00
2022-07-26T04:07:09.902Z,204.00
2022-07-26T04:08:10.108Z,232.00
2022-07-26T04:09:09.827Z,264.00
2022-07-26T04:10:09.910Z,312.00
2022-07-26T04:11:09.972Z,348.00
2022-07-26T04:12:10.955Z,372.00
2022-07-26T04:13:09.680Z,384.00
2022-07-26T04:14:10.224Z,388.00
2022-07-26T04:15:09.598Z,388.00
2022-07-26T04:16:09.557Z,396.00
2022-07-26T04:17:09.629Z,404.00
2022-07-26T04:18:09.558Z,388.00
2022-07-26T04:19:09.447Z,336.00
2022-07-26T04:20:09.570Z,292.00
2022-07-26T04:21:09.386Z,276.00
2022-07-26T04:22:09.435Z,272.00
2022-07-26T04:23:11.154Z,280.00
2022-07-26T04:24:09.711Z,288.00
2022-07-26T04:25:09.208Z,296.00
2022-07-26T04:26:09.408Z,300.00
2022-07-26T04:27:09.265Z,316.00
2022-07-26T04:28:09.109Z,312.00
2022-07-26T04:29:09.065Z,300.00
2022-07-26T04:30:14.415Z,288.00
2022-07-26T04:31:09.041Z,280.00
2022-07-26T04:32:09.036Z,284.00
2022-07-26T04:33:08.920Z,308.00
2022-07-26T04:34:09.491Z,340.00
2022-07-26T04:35:08.819Z,376.00
2022-07-26T04:36:09.897Z,416.00
2022-07-26T04:37:08.757Z,464.00
2022-07-26T04:38:09.899Z,520.00
2022-07-26T04:39:09.095Z,604.00
2022-07-26T04:40:08.626Z,704.00
2022-07-26T04:41:08.694Z,820.00
2022-07-26T04:42:08.620Z,876.00
2022-07-26T04:43:10.081Z,892.00
2022-07-26T04:44:08.703Z,916.00
2022-07-26T04:45:08.811Z,980.00
2022-07-26T04:46:08.490Z,1060.00
2022-07-26T04:47:08.429Z,1184.00
2022-07-26T04:48:08.487Z,1252.00
2022-07-26T04:49:08.517Z,1348.00
2022-07-26T04:50:08.233Z,1504.00
2022-07-26T04:51:08.195Z,1620.00
2022-07-26T04:52:08.262Z,1644.00
2022-07-26T04:53:08.150Z,1704.00
2022-07-26T04:54:08.595Z,1736.00
2022-07-26T04:55:08.025Z,1720.00
2022-07-26T04:56:07.987Z,1668.00
2022-07-26T04:57:07.947Z,1600.00
2022-07-26T04:58:08.107Z,1492.00
2022-07-26T04:59:10.215Z,1400.00
2022-07-26T05:00:24.283Z,1304.00
2022-07-26T05:01:10.293Z,1192.00
2022-07-26T05:02:07.875Z,1116.00
2022-07-26T05:03:07.861Z,1108.00
2022-07-26T05:04:08.244Z,1156.00
2022-07-26T05:05:07.627Z,1228.00
2022-07-26T05:06:07.650Z,1308.00
2022-07-26T05:07:07.545Z,1432.00
2022-07-26T05:08:07.506Z,1644.00
2022-07-26T05:09:07.672Z,1936.00
2022-07-26T05:10:07.523Z,2232.00
2022-07-26T05:11:08.511Z,2496.00
2022-07-26T05:12:07.350Z,2608.00
2022-07-26T05:13:07.496Z,2600.00
2022-07-26T05:14:07.572Z,2572.00
2022-07-26T05:15:13.651Z,2580.00
2022-07-26T05:16:11.884Z,2632.00
2022-07-26T05:17:09.055Z,2716.00
2022-07-26T05:18:08.939Z,2836.00
2022-07-26T05:19:07.062Z,2940.00
2022-07-26T05:20:07.018Z,3048.00
2022-07-26T05:21:07.348Z,3148.00
2022-07-26T05:22:07.020Z,3244.00
2022-07-26T05:23:07.159Z,3404.00
2022-07-26T05:24:07.749Z,3664.00
2022-07-26T05:25:06.825Z,4024.00
2022-07-26T05:26:06.785Z,4364.00
2022-07-26T05:27:06.982Z,4520.00
2022-07-26T05:28:06.701Z,4664.00
2022-07-26T05:29:06.800Z,4960.00
2022-07-26T05:30:06.646Z,5396.00
2022-07-26T05:31:06.653Z,5860.00
2022-07-26T05:32:06.625Z,6232.00
2022-07-26T05:33:06.685Z,6484.00
2022-07-26T05:34:06.895Z,6684.00
2022-07-26T05:35:06.447Z,6676.00
2022-07-26T05:36:06.658Z,6484.00
2022-07-26T05:37:06.350Z,6160.00
2022-07-26T05:38:06.462Z,5792.00
2022-07-26T05:39:06.524Z,5460.00
2022-07-26T05:40:06.482Z,5260.00
2022-07-26T05:41:06.177Z,5232.00
2022-07-26T05:42:06.134Z,5436.00
2022-07-26T05:43:06.149Z,5736.00
2022-07-26T05:44:06.541Z,5988.00
2022-07-26T05:45:13.906Z,6084.00
2022-07-26T05:47:39.031Z,5868.00
2022-07-26T05:48:40.678Z,5632.00
2022-07-26T05:49:40.100Z,5416.00
2022-07-26T05:50:31.239Z,5272.00
2022-07-26T05:51:31.201Z,5304.00
2022-07-26T05:52:31.159Z,5372.00
2022-07-26T05:53:31.129Z,5436.00
2022-07-26T05:54:31.083Z,5512.00
2022-07-26T05:55:31.055Z,5676.00
2022-07-26T05:56:31.015Z,5804.00
2022-07-26T05:57:30.967Z,6024.00
2022-07-26T05:58:30.921Z,6408.00
2022-07-26T05:59:30.880Z,6976.00
2022-07-26T06:03:59.255Z,10268.00
2022-07-26T06:04:57.213Z,10404.00
2022-07-26T06:05:47.986Z,11536.00
2022-07-26T06:06:47.945Z,12948.00
2022-07-26T06:07:47.903Z,14244.00
2022-07-26T06:08:47.861Z,15316.00
2022-07-26T06:09:47.897Z,14928.00
2022-07-26T06:10:47.778Z,13352.00
2022-07-26T06:11:47.738Z,12028.00
2022-07-26T06:12:47.698Z,11532.00
2022-07-26T06:13:47.662Z,11480.00
2022-07-26T06:14:47.618Z,11564.00
2022-07-26T06:15:47.633Z,11596.00
2022-07-26T06:16:47.595Z,11248.00
2022-07-26T06:17:47.498Z,10912.00
2022-07-26T06:18:47.464Z,10540.00
2022-07-26T06:19:47.847Z,10508.00
2022-07-26T06:20:47.381Z,10836.00
2022-07-26T06:21:47.354Z,11436.00
2022-07-26T06:22:47.296Z,12348.00
2022-07-26T06:23:47.254Z,13104.00
2022-07-26T06:24:47.242Z,13548.00
2022-07-26T06:25:47.187Z,13676.00
2022-07-26T06:26:47.139Z,13552.00
2022-07-26T06:27:47.123Z,12916.00
2022-07-26T06:28:47.060Z,12176.00
2022-07-26T06:29:47.049Z,12100.00
2022-07-26T06:30:46.983Z,12364.00
2022-07-26T06:31:47.009Z,12552.00
2022-07-26T06:32:46.896Z,12536.00
2022-07-26T06:33:46.887Z,12364.00
2022-07-26T06:34:46.819Z,11928.00
2022-07-26T06:35:46.779Z,11696.00
2022-07-26T06:36:46.740Z,11772.00
2022-07-26T06:37:46.705Z,12032.00
2022-07-26T06:38:46.665Z,12536.00
2022-07-26T06:39:46.680Z,13176.00
2022-07-26T06:40:46.593Z,13688.00
2022-07-26T06:41:46.548Z,14188.00
2022-07-26T06:42:46.505Z,14588.00
2022-07-26T06:43:46.483Z,14668.00
2022-07-26T06:44:46.428Z,14404.00
2022-07-26T06:45:46.473Z,13864.00
2022-07-26T06:46:46.353Z,13192.00
2022-07-26T06:47:46.311Z,12536.00
2022-07-26T06:48:47.285Z,11632.00
2022-07-26T06:49:46.235Z,10780.00
2022-07-26T06:50:46.192Z,9960.00
2022-07-26T06:51:46.255Z,9464.00
2022-07-26T06:52:48.055Z,9508.00
2022-07-26T06:53:46.077Z,10344.00
2022-07-26T06:54:46.038Z,11276.00
2022-07-26T06:55:46.030Z,11736.00
2022-07-26T06:56:45.987Z,11796.00
2022-07-26T06:57:50.046Z,11844.00
2022-07-26T06:58:45.913Z,12380.00
2022-07-26T06:59:45.840Z,13408.00
2022-07-26T07:00:45.854Z,14408.00
2022-07-26T07:01:57.912Z,14872.00
2022-07-26T07:02:45.757Z,14868.00
2022-07-26T07:03:45.689Z,14684.00
2022-07-26T07:04:45.670Z,14496.00
2022-07-26T07:05:49.797Z,14520.00
2022-07-26T07:06:45.573Z,15516.00
2022-07-26T07:07:45.530Z,17344.00
2022-07-26T07:08:45.507Z,19104.00
2022-07-26T07:09:45.458Z,20864.00
2022-07-26T07:10:45.412Z,22816.00
2022-07-26T07:11:45.373Z,24032.00
2022-07-26T07:12:45.334Z,24512.00
2022-07-26T07:13:45.296Z,25408.00
2022-07-26T07:14:45.283Z,26176.00
2022-07-26T07:15:45.224Z,26848.00
2022-07-26T07:16:45.265Z,26784.00
2022-07-26T07:17:45.147Z,26560.00
2022-07-26T07:18:45.104Z,26784.00
2022-07-26T07:19:45.064Z,26560.00
2022-07-26T07:20:45.040Z,25632.00
2022-07-26T07:21:44.989Z,24768.00
2022-07-26T07:22:44.954Z,24096.00
2022-07-26T07:23:44.924Z,24032.00
2022-07-26T07:24:44.875Z,24512.00
2022-07-26T07:25:45.064Z,25760.00
2022-07-26T07:26:44.799Z,27456.00
2022-07-26T07:27:44.762Z,27904.00
2022-07-26T07:28:44.724Z,27072.00
2022-07-26T07:29:44.689Z,27072.00
2022-07-26T07:30:44.652Z,26688.00
2022-07-26T07:31:48.151Z,26048.00
2022-07-26T07:32:44.642Z,25888.00
2022-07-26T07:33:53.407Z,26336.00
2022-07-26T07:34:44.498Z,27840.00
2022-07-26T07:35:44.463Z,28992.00
2022-07-26T07:36:44.435Z,28448.00
2022-07-26T07:37:52.722Z,27520.00
2022-07-26T07:38:44.351Z,27104.00
2022-07-26T07:39:44.338Z,27136.00
2022-07-26T07:40:44.272Z,27104.00
2022-07-26T07:41:45.355Z,27456.00
2022-07-26T07:42:44.201Z,28448.00
2022-07-26T07:43:44.160Z,29600.00
2022-07-26T07:44:44.127Z,29536.00
2022-07-26T07:45:44.266Z,28032.00
2022-07-26T07:46:44.112Z,27136.00
2022-07-26T07:47:44.019Z,27520.00
2022-07-26T07:48:47.577Z,27936.00
2022-07-26T07:49:43.938Z,28352.00
2022-07-26T07:50:43.902Z,28448.00
2022-07-26T07:51:43.892Z,28192.00
2022-07-26T07:52:43.832Z,26752.00
2022-07-26T07:53:43.799Z,26592.00
2022-07-26T07:54:43.756Z,26688.00
2022-07-26T07:55:46.522Z,25440.00
2022-07-26T07:56:43.679Z,25824.00
2022-07-26T07:57:43.663Z,25344.00
2022-07-26T07:58:43.609Z,23712.00
2022-07-26T07:59:43.570Z,23712.00
2022-07-26T08:00:43.574Z,23872.00
2022-07-26T08:01:43.568Z,24928.00
2022-07-26T08:02:43.460Z,26624.00
2022-07-26T08:03:43.485Z,27584.00
2022-07-26T08:04:43.443Z,28672.00
2022-07-26T08:05:43.346Z,29216.00
2022-07-26T08:06:43.324Z,30624.00
2022-07-26T08:07:43.278Z,36192.00
2022-07-26T08:08:43.239Z,35776.00
2022-07-26T08:09:43.331Z,39296.00
2022-07-26T08:10:49.167Z,40480.00
2022-07-26T08:11:43.147Z,40608.00
2022-07-26T08:12:43.091Z,37376.00
2022-07-26T08:13:47.545Z,36576.00
2022-07-26T08:14:43.017Z,36416.00
2022-07-26T08:15:42.983Z,38112.00
2022-07-26T08:16:43.026Z,37888.00
2022-07-26T08:17:42.941Z,42848.00
2022-07-26T08:18:56.068Z,40704.00
2022-07-26T08:19:42.838Z,37248.00
2022-07-26T08:20:42.816Z,34816.00
2022-07-26T08:21:42.763Z,32896.00
2022-07-26T08:22:42.735Z,33056.00
2022-07-26T08:23:42.704Z,35488.00
2022-07-26T08:24:42.659Z,41728.00
2022-07-26T08:25:55.195Z,36960.00
2022-07-26T08:26:42.587Z,36864.00
2022-07-26T08:27:43.415Z,37536.00
2022-07-26T08:28:47.804Z,36768.00
2022-07-26T08:29:42.476Z,35360.00
2022-07-26T08:30:42.455Z,36896.00
2022-07-26T08:31:42.505Z,37632.00
2022-07-26T08:32:42.370Z,34144.00
2022-07-26T08:33:46.430Z,31776.00
2022-07-26T08:34:42.297Z,31104.00
2022-07-26T08:35:42.304Z,31232.00
2022-07-26T08:37:06.881Z,30656.00
2022-07-26T08:37:42.192Z,30432.00
2022-07-26T08:38:50.282Z,30080.00
2022-07-26T08:39:42.265Z,29536.00
2022-07-26T08:40:42.091Z,29536.00
2022-07-26T08:41:42.278Z,29248.00
2022-07-26T08:42:42.020Z,28320.00
2022-07-26T08:43:45.222Z,27168.00
2022-07-26T08:44:42.352Z,26336.00
2022-07-26T08:45:42.123Z,26176.00
2022-07-26T08:46:41.956Z,26432.00
2022-07-26T08:48:00.663Z,27616.00
2022-07-26T08:48:41.944Z,29024.00
2022-07-26T08:49:41.771Z,28896.00
2022-07-26T08:50:41.936Z,28704.00
2022-07-26T08:51:41.699Z,29216.00
2022-07-26T08:52:41.949Z,31552.00
2022-07-26T08:53:41.626Z,33824.00
2022-07-26T08:54:41.597Z,35456.00
2022-07-26T08:56:41.843Z,37856.00
2022-07-26T08:57:41.588Z,40256.00
2022-07-26T08:58:41.451Z,43776.00
2022-07-26T08:59:41.409Z,46336.00
2022-07-26T09:00:41.479Z,68736.00
2022-07-26T09:01:41.826Z,44064.00
2022-07-26T09:02:41.301Z,44544.00
2022-07-26T09:03:41.530Z,45472.00
2022-07-26T09:04:44.377Z,47104.00
2022-07-26T09:05:41.193Z,49792.00
2022-07-26T09:06:41.157Z,52480.00
2022-07-26T09:07:41.470Z,47456.00
2022-07-26T09:08:41.089Z,52960.00
2022-07-26T09:09:41.266Z,51200.00
2022-07-26T09:10:41.025Z,43744.00
2022-07-26T09:11:43.118Z,61408.00
2022-07-26T09:12:41.153Z,46976.00
2022-07-26T09:13:42.106Z,47168.00
2022-07-26T09:14:40.886Z,63840.00
2022-07-26T09:15:42.122Z,84864.00
2022-07-26T09:17:01.992Z,55456.00
2022-07-26T09:17:48.834Z,52192.00
2022-07-26T09:19:02.004Z,52064.00
2022-07-26T09:19:40.720Z,60640.00
2022-07-26T09:20:40.922Z,60544.00
2022-07-26T09:21:40.644Z,54272.00
2022-07-26T09:22:40.628Z,57696.00
2022-07-26T09:23:40.945Z,46304.00
2022-07-26T09:24:40.541Z,48192.00
2022-07-26T09:25:41.780Z,62624.00
2022-07-26T09:26:40.475Z,44320.00
2022-07-26T09:27:40.437Z,52544.00
2022-07-26T09:28:45.288Z,58720.00
2022-07-26T09:29:40.585Z,118944.00
2022-07-26T09:30:40.342Z,85504.00
2022-07-26T09:31:40.668Z,126944.00
2022-07-26T09:32:40.273Z,119712.00
2022-07-26T09:33:40.249Z,120800.00
2022-07-26T09:34:51.818Z,67808.00
2022-07-26T09:35:51.354Z,107616.00
2022-07-26T09:36:40.431Z,117600.00
2022-07-26T09:37:40.123Z,79008.00
2022-07-26T09:38:40.247Z,87584.00
2022-07-26T09:39:40.057Z,37728.00
2022-07-26T09:40:40.247Z,36160.00
2022-07-26T09:41:40.205Z,77920.00
2022-07-26T09:42:40.262Z,46688.00
2022-07-26T09:43:39.934Z,41280.00
2022-07-26T09:44:47.919Z,33120.00
2022-07-26T09:45:39.876Z,32512.00
2022-07-26T09:46:41.130Z,32736.00
2022-07-26T09:47:40.141Z,34816.00
2022-07-26T09:49:40.596Z,26752.00
2022-07-26T09:50:39.754Z,24448.00
2022-07-26T09:51:39.706Z,22688.00
2022-07-26T09:52:39.923Z,21472.00
2022-07-26T09:53:39.787Z,22240.00
2022-07-26T09:54:39.736Z,24032.00
2022-07-26T09:55:44.724Z,24448.00
2022-07-26T09:56:39.534Z,23296.00
2022-07-26T09:57:39.757Z,22944.00
2022-07-26T09:58:39.477Z,21856.00
2022-07-26T09:59:39.566Z,20224.00
2022-07-26T10:00:39.620Z,19936.00
2022-07-26T10:01:39.421Z,20096.00
2022-07-26T10:02:39.384Z,19968.00
2022-07-26T10:03:39.595Z,19392.00
2022-07-26T10:04:39.281Z,21120.00
2022-07-26T10:05:39.421Z,23872.00
2022-07-26T10:06:39.244Z,26208.00
2022-07-26T10:07:39.190Z,27808.00
2022-07-26T10:08:39.427Z,30080.00
2022-07-26T10:09:39.112Z,33856.00
2022-07-26T10:10:39.243Z,39328.00
2022-07-26T10:11:39.046Z,43712.00
2022-07-26T10:12:39.298Z,47776.00
2022-07-26T10:13:38.986Z,53408.00
2022-07-26T10:14:39.091Z,52992.00
2022-07-26T10:15:38.981Z,69408.00
2022-07-26T10:16:39.074Z,55648.00
2022-07-26T10:17:38.850Z,55200.00
2022-07-26T10:18:39.156Z,122400.00
2022-07-26T10:19:41.397Z,72960.00
2022-07-26T10:20:38.744Z,57696.00
2022-07-26T10:21:38.906Z,54368.00
2022-07-26T10:22:38.963Z,67968.00
2022-07-26T10:23:38.645Z,92000.00
2022-07-26T10:24:38.615Z,66464.00
2022-07-26T10:25:38.727Z,48608.00
2022-07-26T10:26:38.553Z,36416.00
2022-07-26T10:27:38.744Z,34400.00
2022-07-26T10:28:38.520Z,33760.00
2022-07-26T10:29:38.462Z,37536.00
2022-07-26T10:30:38.563Z,33088.00
2022-07-26T10:31:38.454Z,34624.00
2022-07-26T10:32:38.577Z,69408.00
2022-07-26T10:33:38.330Z,122752.00
2022-07-26T10:34:38.589Z,120832.00
2022-07-26T10:35:38.265Z,136288.00
2022-07-26T10:36:38.404Z,137184.00
2022-07-26T10:37:38.202Z,128032.00
2022-07-26T10:38:38.414Z,124768.00
2022-07-26T10:39:38.138Z,144992.00
2022-07-26T10:40:38.145Z,59872.00
2022-07-26T10:41:38.093Z,58752.00
2022-07-26T10:42:38.237Z,84224.00
2022-07-26T10:43:40.996Z,68224.00
2022-07-26T10:44:38.254Z,93280.00
2022-07-26T10:45:38.109Z,110656.00
2022-07-26T10:46:38.055Z,89600.00
2022-07-26T10:47:38.278Z,87232.00
2022-07-26T10:48:37.931Z,130752.00
2022-07-26T10:49:38.113Z,93472.00
2022-07-26T10:50:37.851Z,34368.00
2022-07-26T10:51:38.922Z,29024.00
2022-07-26T10:52:37.793Z,24736.00
2022-07-26T10:53:37.921Z,21760.00
2022-07-26T10:54:37.722Z,19616.00
2022-07-26T10:55:37.926Z,17408.00
2022-07-26T10:56:37.655Z,15296.00
2022-07-26T10:57:37.625Z,13520.00
2022-07-26T10:58:37.831Z,11876.00
2022-07-26T10:59:55.326Z,10592.00
2022-07-26T11:00:37.539Z,9748.00
2022-07-26T11:01:37.784Z,9088.00
2022-07-26T11:02:37.512Z,8772.00
2022-07-26T11:03:38.922Z,8776.00
2022-07-26T11:04:37.691Z,8880.00
2022-07-26T11:05:37.389Z,9088.00
2022-07-26T11:06:37.499Z,9412.00
2022-07-26T11:07:37.326Z,9640.00
2022-07-26T11:08:37.316Z,9740.00
2022-07-26T11:09:37.273Z,9892.00
2022-07-26T11:10:37.532Z,10200.00
2022-07-26T11:11:37.207Z,10240.00
2022-07-26T11:12:37.340Z,10424.00
2022-07-26T11:13:37.149Z,10728.00
2022-07-26T11:14:37.100Z,10588.00
2022-07-26T11:15:37.098Z,10032.00
2022-07-26T11:16:37.365Z,10060.00
2022-07-26T11:17:37.010Z,9784.00
2022-07-26T11:18:37.172Z,9604.00
2022-07-26T11:19:36.936Z,10368.00
2022-07-26T11:20:37.185Z,11524.00
2022-07-26T11:21:36.867Z,13456.00
2022-07-26T11:22:37.198Z,15496.00
2022-07-26T11:23:36.799Z,17376.00
2022-07-26T11:24:37.008Z,19648.00
2022-07-26T11:25:37.018Z,21504.00
2022-07-26T11:26:36.701Z,22208.00
2022-07-26T11:27:38.878Z,21728.00
2022-07-26T11:28:36.655Z,21792.00
2022-07-26T11:29:40.538Z,22592.00
2022-07-26T11:30:36.563Z,24448.00
2022-07-26T11:31:51.155Z,27424.00
2022-07-26T11:32:36.695Z,31232.00
2022-07-26T11:33:36.463Z,35936.00
2022-07-26T11:34:36.459Z,58304.00
2022-07-26T11:35:36.721Z,170720.00
2022-07-26T11:36:36.364Z,118720.00
2022-07-26T11:37:36.490Z,58688.00
2022-07-26T11:38:36.293Z,40864.00
2022-07-26T11:39:36.508Z,40544.00
2022-07-26T11:40:36.366Z,39392.00
2022-07-26T11:41:36.317Z,39264.00
2022-07-26T11:42:36.162Z,39136.00
2022-07-26T11:43:36.336Z,40480.00
2022-07-26T11:44:36.110Z,43424.00
2022-07-26T11:45:36.343Z,49440.00
2022-07-26T11:46:36.124Z,52192.00
2022-07-26T11:47:36.151Z,79840.00
2022-07-26T11:48:36.015Z,168416.00
2022-07-26T11:50:01.130Z,52960.00
2022-07-26T11:50:35.932Z,49312.00
2022-07-26T11:51:36.180Z,48672.00
2022-07-26T11:52:35.845Z,50912.00
2022-07-26T11:53:35.921Z,51136.00
2022-07-26T11:54:35.774Z,53664.00
2022-07-26T11:55:36.208Z,64192.00
2022-07-26T11:56:35.721Z,110752.00
2022-07-26T11:57:35.836Z,80352.00
2022-07-26T11:58:35.664Z,140672.00
2022-07-26T11:59:35.623Z,39840.00
2022-07-26T12:00:35.838Z,38912.00
2022-07-26T12:01:35.682Z,38944.00
2022-07-26T12:02:35.654Z,38880.00
2022-07-26T12:03:35.498Z,42688.00
2022-07-26T12:04:35.576Z,155360.00
2022-07-26T12:05:35.537Z,147840.00
2022-07-26T12:06:35.678Z,142688.00
2022-07-26T12:07:35.398Z,132224.00
2022-07-26T12:08:35.648Z,82176.00
2022-07-26T12:09:35.323Z,150496.00
2022-07-26T12:10:35.302Z,61312.00
2022-07-26T12:11:35.280Z,54208.00
2022-07-26T12:12:35.520Z,70432.00
2022-07-26T12:13:39.921Z,101088.00
2022-07-26T12:14:35.184Z,80576.00
2022-07-26T12:15:35.384Z,162656.00
2022-07-26T12:16:35.213Z,145984.00
2022-07-26T12:17:35.802Z,99360.00
2022-07-26T12:18:35.080Z,117728.00
2022-07-26T12:19:35.363Z,129792.00
2022-07-26T12:20:35.031Z,155232.00
2022-07-26T12:21:35.005Z,75712.00
2022-07-26T12:22:34.976Z,42080.00
2022-07-26T12:23:35.210Z,40800.00
2022-07-26T12:24:34.922Z,108576.00